Time;durP1;ratioP1;P1;durP2;ratioP2;P2;SDS_P1;SDS_P2;PMS_P1;PMS_P2;Temp;Humidity;BMP_temperature;BMP_pressure;BME280_temperature;BME280_humidity;BME280_pressure;Samples;Min_cycle;Max_cycle;Signal;HPM_P1;HPM_P2
2021/08/04 00:01:42;;;;;;;3.25;2.22;;;16.30;74.00;;;;;;5051424;28;20099;-81
2021/08/04 00:04:09;;;;;;;3.90;2.50;;;16.30;74.00;;;;;;5050111;28;20048;-80
2021/08/04 00:06:35;;;;;;;3.28;2.38;;;16.30;74.00;;;;;;5048909;28;20064;-80
2021/08/04 00:09:01;;;;;;;3.58;2.47;;;16.30;74.00;;;;;;5039941;28;20523;-80
2021/08/04 00:11:26;;;;;;;3.97;2.58;;;16.30;74.00;;;;;;5047144;28;20064;-80
2021/08/04 00:13:52;;;;;;;3.55;2.80;;;16.30;74.10;;;;;;5044974;28;20041;-80
2021/08/04 00:16:18;;;;;;;3.33;2.40;;;16.30;74.20;;;;;;5036813;28;20025;-80
2021/08/04 00:18:43;;;;;;;2.83;2.28;;;16.30;74.10;;;;;;5047996;28;20051;-79
2021/08/04 00:21:09;;;;;;;3.95;2.40;;;16.40;74.10;;;;;;5042245;28;20049;-78
2021/08/04 00:23:34;;;;;;;2.30;2.00;;;16.40;74.00;;;;;;5044392;28;20045;-79
2021/08/04 00:26:00;;;;;;;2.88;2.15;;;16.40;74.00;;;;;;5045111;28;20033;-78
2021/08/04 00:28:25;;;;;;;2.92;2.42;;;16.40;74.00;;;;;;5044977;28;20025;-79
2021/08/04 00:30:51;;;;;;;4.70;2.30;;;16.40;74.00;;;;;;5046638;28;20425;-79
2021/08/04 00:33:17;;;;;;;2.90;2.30;;;16.40;74.00;;;;;;5048417;28;20013;-79
2021/08/04 00:35:43;;;;;;;2.53;2.08;;;16.40;74.10;;;;;;5042462;28;20352;-79
2021/08/04 00:38:13;;;;;;;2.90;2.30;;;16.40;74.10;;;;;;5049841;28;20173;-79
2021/08/04 00:40:39;;;;;;;3.13;2.47;;;16.40;74.10;;;;;;5046999;28;20036;-79
2021/08/04 00:43:06;;;;;;;3.70;2.30;;;16.40;74.20;;;;;;5045154;28;20042;-79
2021/08/04 00:45:33;;;;;;;3.25;2.35;;;16.30;74.20;;;;;;5040817;28;20028;-78
2021/08/04 00:47:58;;;;;;;3.10;2.20;;;16.30;74.20;;;;;;5045902;28;20028;-79
2021/08/04 00:50:24;;;;;;;4.15;2.50;;;16.30;74.20;;;;;;5051229;28;20025;-81
2021/08/04 00:52:49;;;;;;;3.15;2.50;;;16.30;74.40;;;;;;5047469;28;20146;-78
2021/08/04 00:55:15;;;;;;;3.58;2.33;;;16.30;74.40;;;;;;5050151;28;20032;-79
2021/08/04 00:57:40;;;;;;;4.10;2.75;;;16.20;74.50;;;;;;5049490;28;20025;-78
2021/08/04 01:00:07;;;;;;;3.85;2.30;;;16.20;74.50;;;;;;5050610;28;20045;-78
2021/08/04 01:02:46;;;;;;;3.88;2.35;;;16.20;74.70;;;;;;5049281;28;20021;-78
2021/08/04 01:05:16;;;;;;;2.30;2.10;;;16.20;74.60;;;;;;5038766;28;20064;-78
2021/08/04 01:07:54;;;;;;;4.32;2.80;;;16.20;74.70;;;;;;5044473;28;20422;-79
2021/08/04 01:10:29;;;;;;;3.60;2.28;;;16.10;74.80;;;;;;5049013;28;20032;-79
2021/08/04 01:13:21;;;;;;;3.38;2.60;;;16.10;74.90;;;;;;5047968;28;20033;-79
2021/08/04 01:16:02;;;;;;;2.85;2.40;;;16.10;75.00;;;;;;5041366;28;20013;-78
2021/08/04 01:18:32;;;;;;;3.13;2.40;;;16.10;75.10;;;;;;5048236;28;20025;-79
2021/08/04 01:20:57;;;;;;;4.50;2.70;;;16.10;75.20;;;;;;5043626;28;20036;-78
2021/08/04 01:23:42;;;;;;;2.72;2.38;;;16.10;75.20;;;;;;5045154;28;20029;-79
2021/08/04 01:26:18;;;;;;;2.60;2.40;;;16.00;75.20;;;;;;5047821;28;20132;-79
2021/08/04 01:28:49;;;;;;;3.67;2.90;;;16.10;75.30;;;;;;5047346;28;20035;-79
2021/08/04 01:31:18;;;;;;;3.28;2.80;;;16.00;75.60;;;;;;5046421;28;20111;-79
2021/08/04 01:33:47;;;;;;;3.15;2.03;;;16.00;75.70;;;;;;5044918;28;20029;-78
2021/08/04 01:36:13;;;;;;;2.65;2.30;;;16.00;75.60;;;;;;5048714;28;20029;-79
2021/08/04 01:38:40;;;;;;;3.00;2.45;;;16.00;75.60;;;;;;5047935;28;20029;-79
2021/08/04 01:41:07;;;;;;;3.05;2.35;;;15.90;76.30;;;;;;5050003;28;20502;-79
2021/08/04 01:43:34;;;;;;;3.50;2.85;;;16.00;75.70;;;;;;5049470;28;20131;-79
2021/08/04 01:46:00;;;;;;;3.55;2.65;;;16.00;75.80;;;;;;5048186;28;20040;-78
2021/08/04 01:48:27;;;;;;;2.70;2.22;;;16.00;75.80;;;;;;5048953;28;20049;-78
2021/08/04 01:50:56;;;;;;;4.50;2.60;;;15.90;75.70;;;;;;5047698;28;20040;-78
2021/08/04 01:53:23;;;;;;;3.67;2.30;;;16.00;75.70;;;;;;5040849;28;20028;-77
2021/08/04 01:55:49;;;;;;;2.10;1.90;;;16.00;75.70;;;;;;5042775;28;20013;-77
2021/08/04 01:58:15;;;;;;;3.38;2.25;;;15.90;75.60;;;;;;5042678;28;20028;-77
2021/08/04 02:00:40;;;;;;;3.42;2.80;;;15.90;75.60;;;;;;5049391;28;20048;-77
2021/08/04 02:03:06;;;;;;;2.90;2.05;;;15.90;75.60;;;;;;5044147;28;20108;-78
2021/08/04 02:05:31;;;;;;;3.95;2.70;;;15.90;75.70;;;;;;5047772;28;20045;-78
2021/08/04 02:08:37;;;;;;;3.65;2.38;;;15.90;75.70;;;;;;5045107;28;20029;-77
2021/08/04 02:11:13;;;;;;;2.72;2.38;;;15.90;75.80;;;;;;5025393;28;20040;-79
2021/08/04 02:14:07;;;;;;;3.17;2.75;;;15.80;76.00;;;;;;5046227;28;20119;-78
2021/08/04 02:17:04;;;;;;;2.15;1.95;;;15.80;76.10;;;;;;5045502;28;20036;-80
2021/08/04 02:19:47;;;;;;;2.92;2.15;;;15.80;76.00;;;;;;5048555;28;20605;-80
2021/08/04 02:22:21;;;;;;;;;;;15.80;76.10;;;;;;5049963;28;20025;-80
2021/08/04 02:24:51;;;;;;;2.70;2.30;;;15.80;76.00;;;;;;5048355;28;20294;-80
2021/08/04 02:27:17;;;;;;;3.08;2.28;;;15.80;76.20;;;;;;5048454;28;20036;-80
2021/08/04 02:29:46;;;;;;;3.22;2.42;;;15.80;76.20;;;;;;5049526;28;20044;-80
2021/08/04 02:32:12;;;;;;;4.03;2.58;;;15.70;76.20;;;;;;5049922;28;20094;-80
2021/08/04 02:34:38;;;;;;;2.97;2.10;;;15.80;76.20;;;;;;5051461;28;20410;-81
2021/08/04 02:37:03;;;;;;;3.58;2.17;;;15.80;76.20;;;;;;5052539;28;20052;-79
2021/08/04 02:39:29;;;;;;;3.35;2.50;;;15.80;76.80;;;;;;5053436;28;20059;-79
2021/08/04 02:41:55;;;;;;;3.08;2.25;;;15.80;76.10;;;;;;5051947;28;20463;-78
2021/08/04 02:44:21;;;;;;;3.08;2.72;;;15.70;76.10;;;;;;5053273;28;20025;-79
2021/08/04 02:46:48;;;;;;;3.35;2.63;;;15.70;76.20;;;;;;5051737;28;20116;-78
2021/08/04 02:49:18;;;;;;;3.67;2.75;;;15.70;76.20;;;;;;5050331;28;20067;-78
2021/08/04 02:51:45;;;;;;;2.85;2.30;;;15.70;76.20;;;;;;5053554;28;20029;-78
2021/08/04 02:54:14;;;;;;;2.92;2.40;;;15.70;76.20;;;;;;5050237;28;20025;-79
2021/08/04 02:56:40;;;;;;;3.03;2.63;;;15.70;76.30;;;;;;5052154;28;20052;-78
2021/08/04 02:59:05;;;;;;;3.85;2.45;;;15.70;76.40;;;;;;5051314;28;20056;-79
2021/08/04 03:01:31;;;;;;;3.30;2.58;;;15.70;76.40;;;;;;5052877;28;20630;-79
2021/08/04 03:03:56;;;;;;;3.95;2.35;;;15.70;76.40;;;;;;5052945;28;20040;-79
2021/08/04 03:06:22;;;;;;;2.40;2.20;;;15.70;76.30;;;;;;5050033;28;20040;-78
2021/08/04 03:08:47;;;;;;;3.15;2.30;;;15.60;76.30;;;;;;5052610;28;20036;-78
2021/08/04 03:11:13;;;;;;;2.28;2.08;;;15.60;76.30;;;;;;5053597;28;20104;-78
2021/08/04 03:13:38;;;;;;;2.70;2.30;;;15.60;76.30;;;;;;5052124;28;20489;-78
2021/08/04 03:16:05;;;;;;;2.92;2.50;;;15.60;76.30;;;;;;5047006;28;20037;-78
2021/08/04 03:18:31;;;;;;;3.33;2.00;;;15.60;76.30;;;;;;5052102;28;20021;-78
2021/08/04 03:20:57;;;;;;;2.42;2.17;;;15.50;76.30;;;;;;5052726;28;20102;-78
2021/08/04 03:23:23;;;;;;;3.22;2.40;;;15.50;76.30;;;;;;5052479;28;20017;-78
2021/08/04 03:25:49;;;;;;;3.25;2.63;;;15.50;76.40;;;;;;5051642;28;20132;-78
2021/08/04 03:28:15;;;;;;;3.10;2.40;;;15.50;76.40;;;;;;5051361;28;20044;-77
2021/08/04 03:30:40;;;;;;;2.90;2.33;;;15.50;76.50;;;;;;5051961;28;20115;-78
2021/08/04 03:33:07;;;;;;;3.03;2.63;;;15.40;76.50;;;;;;5052738;28;20037;-78
2021/08/04 03:35:33;;;;;;;3.08;2.58;;;15.40;76.60;;;;;;5051572;28;20021;-78
2021/08/04 03:37:58;;;;;;;2.40;2.20;;;15.50;76.70;;;;;;5051037;28;20104;-78
2021/08/04 03:40:24;;;;;;;3.95;2.35;;;15.40;76.70;;;;;;5052584;28;20367;-78
2021/08/04 03:42:49;;;;;;;3.17;2.53;;;15.40;76.70;;;;;;5051970;28;20443;-79
2021/08/04 03:45:15;;;;;;;2.60;2.40;;;15.40;76.60;;;;;;5049620;28;20037;-78
2021/08/04 03:47:40;;;;;;;3.05;2.38;;;15.40;76.70;;;;;;5051395;28;20384;-79
2021/08/04 03:50:07;;;;;;;2.80;2.15;;;15.50;76.70;;;;;;5052153;28;20111;-78
2021/08/04 03:52:33;;;;;;;2.30;2.10;;;15.50;76.70;;;;;;5050746;28;20506;-77
2021/08/04 03:54:59;;;;;;;2.50;2.10;;;15.40;76.60;;;;;;5050302;28;20025;-77
2021/08/04 03:57:25;;;;;;;2.80;2.33;;;15.40;76.70;;;;;;5051282;28;20434;-77
2021/08/04 03:59:50;;;;;;;3.30;2.20;;;15.40;76.70;;;;;;5052043;28;20033;-77
2021/08/04 04:02:16;;;;;;;2.58;2.20;;;15.40;76.70;;;;;;5050808;28;20047;-77
2021/08/04 04:04:42;;;;;;;3.50;2.63;;;15.40;76.80;;;;;;5051700;28;20029;-77
2021/08/04 04:07:07;;;;;;;3.47;2.50;;;15.30;76.70;;;;;;5049594;28;20040;-77
2021/08/04 04:09:34;;;;;;;2.55;2.08;;;15.30;76.70;;;;;;5052080;28;20029;-77
2021/08/04 04:12:00;;;;;;;2.65;2.25;;;15.30;76.80;;;;;;5051537;28;20021;-77
2021/08/04 04:14:25;;;;;;;2.53;2.25;;;15.40;76.90;;;;;;5051088;28;20079;-77
2021/08/04 04:16:52;;;;;;;2.78;2.40;;;15.30;76.80;;;;;;5050835;28;20490;-76
2021/08/04 04:19:17;;;;;;;3.03;2.40;;;15.30;76.70;;;;;;5051850;28;20036;-76
2021/08/04 04:21:43;;;;;;;2.45;2.25;;;15.30;76.70;;;;;;5047258;28;20029;-76
2021/08/04 04:24:08;;;;;;;3.72;2.50;;;15.30;76.80;;;;;;5046723;28;20077;-76
2021/08/04 04:26:34;;;;;;;4.55;2.70;;;15.30;76.70;;;;;;5045577;28;20403;-76
2021/08/04 04:29:00;;;;;;;2.67;2.42;;;15.30;76.70;;;;;;5050932;28;20449;-76
2021/08/04 04:31:25;;;;;;;2.35;2.15;;;15.30;76.70;;;;;;5045943;28;20028;-78
2021/08/04 04:33:51;;;;;;;3.13;2.58;;;15.30;76.70;;;;;;5049523;28;20112;-77
2021/08/04 04:36:16;;;;;;;3.00;2.40;;;15.40;76.80;;;;;;5048192;28;20033;-77
2021/08/04 04:38:42;;;;;;;3.17;2.65;;;15.30;76.70;;;;;;5044748;28;20034;-77
2021/08/04 04:41:07;;;;;;;2.47;2.28;;;15.30;76.70;;;;;;5050104;28;20041;-78
2021/08/04 04:43:36;;;;;;;2.63;2.30;;;15.30;76.70;;;;;;5044620;28;20625;-77
2021/08/04 04:46:02;;;;;;;3.10;2.50;;;15.40;76.70;;;;;;5047690;28;20045;-78
2021/08/04 04:48:27;;;;;;;3.30;2.30;;;15.30;76.60;;;;;;5046292;28;20025;-78
2021/08/04 04:50:53;;;;;;;3.10;2.35;;;15.40;76.60;;;;;;5046017;28;20029;-79
2021/08/04 04:53:19;;;;;;;2.83;2.53;;;15.40;76.70;;;;;;5050363;28;20021;-78
2021/08/04 04:55:44;;;;;;;3.58;2.95;;;15.40;76.60;;;;;;5048561;28;20029;-80
2021/08/04 04:58:10;;;;;;;2.60;2.30;;;15.40;77.30;;;;;;5049989;28;20116;-79
2021/08/04 05:00:35;;;;;;;2.88;2.42;;;15.40;76.70;;;;;;5047983;28;20112;-79
2021/08/04 05:03:01;;;;;;;3.00;2.40;;;15.50;76.70;;;;;;5042939;28;20117;-78
2021/08/04 05:05:26;;;;;;;2.97;2.40;;;15.50;76.70;;;;;;5047497;28;20029;-78
2021/08/04 05:07:52;;;;;;;3.72;2.55;;;15.50;76.50;;;;;;5050884;28;20098;-78
2021/08/04 05:10:17;;;;;;;2.65;2.45;;;15.60;76.50;;;;;;5045751;28;20035;-79
2021/08/04 05:12:43;;;;;;;2.83;2.30;;;15.60;76.30;;;;;;5048597;28;20067;-79
2021/08/04 05:15:09;;;;;;;2.53;2.17;;;15.70;76.30;;;;;;5049944;28;20124;-78
2021/08/04 05:17:34;;;;;;;2.53;2.33;;;15.70;76.20;;;;;;5050256;28;20031;-78
2021/08/04 05:20:00;;;;;;;2.58;2.38;;;15.70;76.20;;;;;;5051255;28;20025;-78
2021/08/04 05:22:25;;;;;;;2.90;2.50;;;15.80;76.10;;;;;;5050442;28;20051;-77
2021/08/04 05:24:51;;;;;;;3.25;2.50;;;15.90;76.00;;;;;;5050686;28;20048;-77
2021/08/04 05:27:16;;;;;;;4.00;2.75;;;16.40;75.80;;;;;;5050766;28;20399;-79
2021/08/04 05:29:42;;;;;;;2.58;2.08;;;17.30;74.10;;;;;;5049313;28;20067;-78
2021/08/04 05:32:08;;;;;;;4.53;2.92;;;18.20;71.80;;;;;;5049526;28;20036;-78
2021/08/04 05:34:33;;;;;;;3.90;2.72;;;19.00;69.90;;;;;;5049962;28;20028;-77
2021/08/04 05:36:59;;;;;;;3.35;2.55;;;19.70;67.90;;;;;;5049248;28;20021;-77
2021/08/04 05:39:25;;;;;;;3.60;2.58;;;20.50;66.20;;;;;;5048730;28;20029;-79
2021/08/04 05:41:50;;;;;;;2.97;2.55;;;21.10;64.40;;;;;;5049339;28;20500;-78
2021/08/04 05:44:17;;;;;;;3.70;2.50;;;21.70;62.90;;;;;;5049532;28;20027;-78
2021/08/04 05:46:42;;;;;;;2.67;2.42;;;22.30;61.70;;;;;;5049171;28;20041;-78
2021/08/04 05:49:08;;;;;;;2.38;2.17;;;22.80;60.50;;;;;;5049328;28;20079;-78
2021/08/04 05:51:33;;;;;;;2.92;2.50;;;23.30;59.50;;;;;;5049402;28;20021;-80
2021/08/04 05:53:59;;;;;;;2.70;2.38;;;23.60;58.50;;;;;;5049546;28;20075;-80
2021/08/04 05:56:24;;;;;;;2.55;2.13;;;23.90;57.80;;;;;;5048222;28;20100;-81
2021/08/04 05:58:50;;;;;;;2.70;2.20;;;24.20;57.00;;;;;;5048390;28;20502;-80
2021/08/04 06:01:15;;;;;;;2.58;2.38;;;24.50;56.40;;;;;;5048073;28;20027;-80
2021/08/04 06:03:41;;;;;;;2.15;1.95;;;24.80;55.60;;;;;;5048570;28;21304;-80
2021/08/04 06:06:06;;;;;;;1.98;1.75;;;25.10;55.00;;;;;;5045058;28;20098;-79
2021/08/04 06:08:32;;;;;;;2.60;2.10;;;25.50;54.60;;;;;;5050684;28;20029;-79
2021/08/04 06:10:57;;;;;;;2.65;2.40;;;25.60;54.00;;;;;;5052608;28;20129;-80
2021/08/04 06:13:23;;;;;;;3.33;2.17;;;25.80;53.40;;;;;;5053063;28;20028;-79
2021/08/04 06:15:49;;;;;;;2.92;2.08;;;26.00;53.00;;;;;;5045470;28;20033;-80
2021/08/04 06:18:15;;;;;;;2.17;1.90;;;26.10;52.70;;;;;;5054750;28;20108;-80
2021/08/04 06:20:41;;;;;;;2.45;1.85;;;26.30;52.50;;;;;;5052330;28;20116;-80
2021/08/04 06:23:07;;;;;;;2.17;1.90;;;26.30;52.00;;;;;;5047858;28;20074;-80
2021/08/04 06:25:32;;;;;;;2.20;1.85;;;26.50;51.80;;;;;;5053459;28;20033;-83
2021/08/04 06:27:58;;;;;;;2.55;2.05;;;26.70;51.40;;;;;;5052149;28;20445;-85
2021/08/04 06:30:23;;;;;;;2.13;1.92;;;26.90;50.90;;;;;;5046112;28;20060;-79
2021/08/04 06:32:49;;;;;;;2.20;2.00;;;26.80;50.70;;;;;;5045770;28;20036;-80
2021/08/04 06:35:14;;;;;;;3.05;2.10;;;27.00;50.30;;;;;;5044917;28;20067;-79
2021/08/04 06:37:40;;;;;;;3.20;2.55;;;27.20;50.10;;;;;;5046863;28;20025;-78
2021/08/04 06:40:06;;;;;;;2.10;1.80;;;27.00;49.80;;;;;;5051101;28;20024;-78
2021/08/04 06:42:32;;;;;;;2.45;2.17;;;27.10;50.40;;;;;;5051050;28;20036;-78
2021/08/04 06:44:57;;;;;;;3.33;1.95;;;27.00;50.40;;;;;;5049156;28;20075;-79
2021/08/04 06:47:22;;;;;;;2.30;2.10;;;26.70;50.90;;;;;;5046010;28;20512;-78
2021/08/04 06:49:48;;;;;;;3.05;2.60;;;26.30;51.50;;;;;;5045880;28;20021;-79
2021/08/04 06:52:14;;;;;;;2.30;2.08;;;25.50;52.60;;;;;;5049240;28;20045;-80
2021/08/04 06:54:39;;;;;;;2.60;1.80;;;25.60;53.60;;;;;;5049701;28;20013;-79
2021/08/04 06:57:05;;;;;;;2.22;2.03;;;25.80;53.80;;;;;;5041601;28;20017;-79
2021/08/04 06:59:30;;;;;;;1.85;1.73;;;25.90;53.80;;;;;;5048873;28;20471;-79
2021/08/04 07:01:56;;;;;;;2.72;2.10;;;25.90;53.90;;;;;;5054420;28;20120;-77
2021/08/04 07:04:21;;;;;;;2.60;2.08;;;25.90;54.20;;;;;;5051609;28;20029;-79
2021/08/04 07:06:58;;;;;;;2.53;2.08;;;25.90;54.30;;;;;;5051742;28;20040;-78
2021/08/04 07:09:24;;;;;;;2.55;2.35;;;25.80;54.40;;;;;;5048500;28;20369;-76
2021/08/04 07:11:50;;;;;;;2.13;1.75;;;25.70;54.20;;;;;;5042769;28;20041;-77
2021/08/04 07:14:19;;;;;;;2.88;2.15;;;25.80;54.50;;;;;;5042147;28;20024;-77
2021/08/04 07:16:46;;;;;;;2.97;2.10;;;26.20;54.00;;;;;;5049271;28;20024;-81
2021/08/04 07:19:13;;;;;;;2.25;1.90;;;26.50;53.20;;;;;;5045045;28;20120;-82
2021/08/04 07:21:39;;;;;;;2.30;2.10;;;26.90;52.50;;;;;;5051838;28;20065;-83
2021/08/04 07:24:06;;;;;;;2.38;2.15;;;27.20;52.00;;;;;;5052143;28;20150;-83
2021/08/04 07:26:32;;;;;;;1.90;1.73;;;27.40;51.70;;;;;;5045711;28;20090;-83
2021/08/04 07:28:58;;;;;;;1.98;1.52;;;27.30;51.70;;;;;;5044698;28;20434;-85
2021/08/04 07:31:24;;;;;;;2.28;1.98;;;27.20;52.00;;;;;;5048362;28;20032;-84
2021/08/04 07:33:50;;;;;;;2.25;1.80;;;27.10;52.10;;;;;;5045007;28;20021;-85
2021/08/04 07:36:15;;;;;;;2.45;1.90;;;27.00;52.10;;;;;;5045512;28;20017;-82
2021/08/04 07:38:41;;;;;;;2.40;2.10;;;26.80;52.40;;;;;;5049349;28;20060;-83
2021/08/04 07:41:06;;;;;;;2.30;1.75;;;26.50;52.90;;;;;;5045433;28;20018;-82
2021/08/04 07:43:32;;;;;;;2.28;1.80;;;26.20;53.90;;;;;;5049632;28;20116;-83
2021/08/04 07:45:58;;;;;;;2.05;1.73;;;25.90;54.00;;;;;;5046854;28;20562;-84
2021/08/04 07:48:23;;;;;;;1.60;1.50;;;25.50;54.20;;;;;;5048089;28;20029;-85
2021/08/04 07:50:49;;;;;;;2.60;1.75;;;25.20;54.90;;;;;;5048140;28;20038;-84
2021/08/04 07:53:15;;;;;;;1.98;1.75;;;25.00;55.20;;;;;;5047743;28;20104;-84
2021/08/04 07:55:42;;;;;;;2.20;2.00;;;24.80;55.70;;;;;;5047239;28;20029;-85
2021/08/04 07:58:11;;;;;;;2.47;2.00;;;24.50;55.30;;;;;;5044041;28;20123;-82
2021/08/04 08:00:39;;;;;;;2.55;2.25;;;24.10;55.60;;;;;;5045408;28;20054;-83
2021/08/04 08:03:05;;;;;;;2.05;1.65;;;23.80;56.20;;;;;;5048256;28;20022;-82
2021/08/04 08:05:30;;;;;;;2.38;1.70;;;23.60;56.60;;;;;;5049236;28;20068;-81
2021/08/04 08:08:03;;;;;;;2.13;1.63;;;23.50;57.10;;;;;;5046810;28;20114;-80
2021/08/04 08:10:29;;;;;;;2.38;1.60;;;23.70;57.20;;;;;;5043420;28;20078;-80
2021/08/04 08:12:55;;;;;;;2.92;1.60;;;23.70;56.80;;;;;;5046855;28;20061;-79
2021/08/04 08:15:21;;;;;;;1.92;1.83;;;23.70;56.90;;;;;;5044748;28;20107;-80
2021/08/04 08:17:47;;;;;;;1.70;1.60;;;23.60;56.70;;;;;;5048433;28;20017;-82
2021/08/04 08:20:13;;;;;;;1.30;1.20;;;23.40;56.80;;;;;;5042499;28;20036;-81
2021/08/04 08:22:39;;;;;;;2.03;1.60;;;23.30;57.00;;;;;;5039116;28;20032;-79
2021/08/04 08:25:06;;;;;;;1.65;1.55;;;23.10;56.30;;;;;;5040403;28;20029;-79
2021/08/04 08:27:35;;;;;;;1.55;1.45;;;22.90;56.90;;;;;;5043259;28;20035;-79
2021/08/04 08:30:01;;;;;;;2.00;1.17;;;22.80;56.90;;;;;;5046073;28;20033;-80
2021/08/04 08:32:26;;;;;;;1.52;1.42;;;22.80;57.40;;;;;;5045604;28;20071;-81
2021/08/04 08:34:53;;;;;;;2.00;1.30;;;22.90;57.30;;;;;;5040471;28;20029;-81
2021/08/04 08:37:19;;;;;;;1.90;1.40;;;22.90;57.00;;;;;;5038491;28;20036;-79
2021/08/04 08:39:45;;;;;;;1.15;1.05;;;23.00;56.80;;;;;;5042208;28;20029;-79
2021/08/04 08:42:10;;;;;;;2.90;1.60;;;23.20;56.80;;;;;;5038036;28;20101;-79
2021/08/04 08:44:36;;;;;;;1.40;1.30;;;23.20;56.50;;;;;;5042389;28;20079;-78
2021/08/04 08:47:08;;;;;;;1.40;1.10;;;23.30;56.20;;;;;;5043013;28;20083;-78
2021/08/04 08:49:34;;;;;;;1.45;1.20;;;23.30;56.10;;;;;;5045784;28;20037;-80
2021/08/04 08:52:00;;;;;;;1.52;1.15;;;23.20;56.10;;;;;;5041179;28;20033;-81
2021/08/04 08:54:27;;;;;;;2.28;1.90;;;23.20;56.50;;;;;;5043439;28;20032;-80
2021/08/04 08:56:53;;;;;;;1.80;1.60;;;23.10;55.90;;;;;;5044685;28;20087;-82
2021/08/04 08:59:19;;;;;;;2.10;1.75;;;23.20;56.00;;;;;;5045477;28;20492;-81
2021/08/04 09:01:46;;;;;;;3.28;1.67;;;23.10;55.90;;;;;;5041152;28;20016;-80
2021/08/04 09:04:15;;;;;;;1.63;1.40;;;23.20;55.80;;;;;;5045718;28;20044;-82
2021/08/04 09:06:54;;;;;;;1.63;1.40;;;23.20;55.60;;;;;;5043798;28;20032;-81
2021/08/04 09:09:22;;;;;;;1.40;1.30;;;23.20;55.30;;;;;;5045554;28;20025;-81
2021/08/04 09:11:52;;;;;;;1.40;1.30;;;23.10;55.40;;;;;;5046059;28;20428;-81
2021/08/04 09:14:34;;;;;;;1.33;1.23;;;23.10;55.40;;;;;;5048739;28;20087;-81
2021/08/04 09:17:15;;;;;;;2.55;1.00;;;23.10;55.60;;;;;;5044268;28;20025;-80
2021/08/04 09:19:50;;;;;;;1.50;1.40;;;23.30;55.70;;;;;;5046653;28;20056;-81
2021/08/04 09:22:25;;;;;;;1.30;1.10;;;23.50;55.20;;;;;;5046312;28;20036;-83
2021/08/04 09:25:02;;;;;;;2.47;0.93;;;23.70;55.00;;;;;;5041686;28;20029;-82
2021/08/04 09:27:43;;;;;;;1.30;1.20;;;23.90;55.00;;;;;;5043958;28;20409;-79
2021/08/04 09:30:18;;;;;;;1.48;1.35;;;24.10;54.30;;;;;;5042950;28;20423;-81
2021/08/04 09:32:44;;;;;;;1.17;1.08;;;24.20;53.70;;;;;;5047986;28;20037;-81
2021/08/04 09:35:18;;;;;;;2.88;1.77;;;24.30;53.70;;;;;;5039968;28;20040;-80
2021/08/04 09:37:46;;;;;;;3.35;1.20;;;24.50;53.30;;;;;;5039194;28;20086;-82
2021/08/04 09:40:18;;;;;;;0.98;0.88;;;24.50;53.10;;;;;;5045619;28;20029;-81
2021/08/04 09:42:52;;;;;;;3.42;2.30;;;24.60;52.70;;;;;;5046457;28;20078;-80
2021/08/04 09:45:21;;;;;;;3.80;2.20;;;24.20;51.60;;;;;;5045814;28;20048;-81
2021/08/04 09:48:03;;;;;;;1.88;1.50;;;23.90;51.80;;;;;;5040817;28;20367;-81
2021/08/04 09:50:46;;;;;;;2.83;1.80;;;23.80;52.30;;;;;;5044132;28;20511;-81
2021/08/04 09:53:29;;;;;;;2.33;1.92;;;23.80;51.90;;;;;;5046888;28;20072;-80
2021/08/04 09:56:10;;;;;;;1.85;1.40;;;23.70;51.90;;;;;;5042322;28;20017;-83
2021/08/04 09:58:45;;;;;;;1.58;1.40;;;24.00;52.70;;;;;;5043164;28;20033;-82
2021/08/04 10:01:13;;;;;;;2.47;1.77;;;24.30;52.50;;;;;;5043434;28;20033;-83
2021/08/04 10:04:00;;;;;;;1.95;1.40;;;24.40;51.20;;;;;;5041024;28;20356;-81
2021/08/04 10:06:26;;;;;;;2.08;1.60;;;24.50;51.70;;;;;;5038773;28;20045;-80
2021/08/04 10:08:52;;;;;;;2.65;1.63;;;24.80;50.90;;;;;;5040822;28;20089;-81
2021/08/04 10:11:18;;;;;;;2.67;1.85;;;24.70;50.80;;;;;;5045518;28;20141;-83
2021/08/04 10:13:45;;;;;;;2.85;1.58;;;24.60;50.80;;;;;;5040928;28;20040;-82
2021/08/04 10:16:11;;;;;;;2.53;1.40;;;24.70;50.80;;;;;;5048826;28;20033;-84
2021/08/04 10:18:39;;;;;;;1.95;1.50;;;25.00;50.90;;;;;;5047877;28;20388;-82
2021/08/04 10:21:11;;;;;;;1.50;1.20;;;25.10;50.20;;;;;;5045058;28;20108;-85
2021/08/04 10:23:38;;;;;;;2.40;1.80;;;25.20;50.40;;;;;;5043946;28;20759;-80
2021/08/04 10:26:05;;;;;;;2.47;1.50;;;24.90;47.80;;;;;;5043717;28;20048;-82
2021/08/04 10:28:31;;;;;;;2.03;1.30;;;24.80;47.80;;;;;;5045240;28;20067;-80
2021/08/04 10:30:58;;;;;;;3.30;1.70;;;24.80;47.40;;;;;;5039376;28;20496;-81
2021/08/04 10:33:24;;;;;;;1.40;1.27;;;24.90;46.70;;;;;;5047240;28;20025;-81
2021/08/04 10:35:53;;;;;;;2.67;1.50;;;24.90;46.90;;;;;;5038276;28;20091;-82
2021/08/04 10:38:22;;;;;;;3.03;1.70;;;24.90;46.40;;;;;;5037855;28;20036;-80
2021/08/04 10:41:11;;;;;;;2.58;1.50;;;24.60;45.30;;;;;;5045292;28;20055;-80
2021/08/04 10:43:43;;;;;;;3.00;1.80;;;24.60;45.30;;;;;;5042609;28;20021;-81
2021/08/04 10:46:28;;;;;;;2.65;1.50;;;24.40;45.30;;;;;;5042025;28;20033;-81
2021/08/04 10:48:58;;;;;;;2.45;1.83;;;24.50;45.50;;;;;;5046979;28;20074;-81
2021/08/04 10:51:24;;;;;;;3.28;1.70;;;24.60;45.50;;;;;;5040665;28;20040;-81
2021/08/04 10:54:02;;;;;;;2.00;1.33;;;24.60;44.30;;;;;;5042360;28;20042;-81
2021/08/04 10:56:37;;;;;;;2.65;1.50;;;24.30;44.70;;;;;;5047128;28;20115;-81
2021/08/04 10:59:08;;;;;;;3.13;1.70;;;24.20;45.60;;;;;;5042830;28;20021;-80
2021/08/04 11:01:43;;;;;;;3.83;1.80;;;24.20;45.60;;;;;;5050465;28;20017;-81
2021/08/04 11:04:13;;;;;;;3.00;1.98;;;24.20;44.80;;;;;;5052321;28;20279;-80
2021/08/04 11:07:08;;;;;;;3.47;2.10;;;23.90;45.60;;;;;;5048422;28;20740;-81
2021/08/04 11:09:38;;;;;;;3.58;2.13;;;24.10;46.70;;;;;;5049666;28;20036;-80
2021/08/04 11:12:08;;;;;;;2.88;1.88;;;24.10;46.40;;;;;;5050087;28;20037;-80
2021/08/04 11:14:40;;;;;;;2.15;1.50;;;24.10;47.30;;;;;;5047558;28;20021;-80
2021/08/04 11:17:07;;;;;;;;;;;24.30;47.30;;;;;;5043899;28;20025;-80
2021/08/04 11:19:53;;;;;;;3.13;2.10;;;24.30;47.30;;;;;;5048700;28;19943;-81
2021/08/04 11:22:20;;;;;;;2.67;2.00;;;24.40;47.20;;;;;;5062886;28;20029;-81
2021/08/04 11:24:57;;;;;;;2.58;1.73;;;24.30;47.30;;;;;;5065591;28;20029;-81
2021/08/04 11:27:25;;;;;;;2.30;2.10;;;24.50;47.90;;;;;;5048837;28;20467;-81
2021/08/04 11:29:52;;;;;;;1.90;1.50;;;24.50;46.10;;;;;;5043473;28;20132;-85
2021/08/04 11:32:20;;;;;;;2.53;1.80;;;24.40;46.90;;;;;;5048695;28;20522;-82
2021/08/04 11:34:45;;;;;;;2.00;1.70;;;24.30;47.50;;;;;;5051297;28;20040;-85
2021/08/04 11:37:11;;;;;;;3.22;1.95;;;24.20;47.30;;;;;;5045664;28;20025;-85
2021/08/04 11:39:52;;;;;;;1.73;1.20;;;24.20;47.70;;;;;;5049960;28;20075;-83
2021/08/04 11:42:18;;;;;;;2.05;1.52;;;24.60;48.00;;;;;;5047391;28;20022;-80
2021/08/04 11:44:43;;;;;;;2.30;1.95;;;24.50;47.60;;;;;;5043763;28;20386;-82
2021/08/04 11:47:10;;;;;;;2.60;2.38;;;24.40;47.30;;;;;;5051398;28;20040;-81
2021/08/04 11:49:46;;;;;;;2.22;1.88;;;24.30;47.50;;;;;;5049627;28;20565;-83
2021/08/04 11:52:19;;;;;;;3.10;1.70;;;24.20;47.90;;;;;;5048469;28;20029;-83
2021/08/04 11:55:07;;;;;;;2.72;1.80;;;24.10;48.20;;;;;;5046574;28;20574;-82
2021/08/04 11:57:37;;;;;;;3.25;2.47;;;24.20;48.30;;;;;;5041228;28;20033;-83
2021/08/04 12:00:10;;;;;;;1.92;1.45;;;24.40;46.90;;;;;;5043543;28;20026;-84
2021/08/04 12:02:38;;;;;;;2.63;1.55;;;24.60;47.10;;;;;;5044625;28;20036;-81
2021/08/04 12:05:05;;;;;;;3.03;2.00;;;25.00;47.10;;;;;;5045422;28;20025;-82
2021/08/04 12:07:34;;;;;;;3.65;1.90;;;25.20;46.70;;;;;;5046105;28;20051;-81
2021/08/04 12:10:01;;;;;;;2.55;1.90;;;25.50;46.20;;;;;;5049779;28;20106;-83
2021/08/04 12:12:35;;;;;;;2.90;2.28;;;25.60;45.80;;;;;;5046097;28;20025;-82
2021/08/04 12:15:12;;;;;;;1.80;1.70;;;25.60;44.60;;;;;;5049306;28;20044;-82
2021/08/04 12:17:38;;;;;;;2.38;1.70;;;25.50;45.00;;;;;;5050323;28;20051;-82
2021/08/04 12:20:19;;;;;;;2.08;1.35;;;25.70;44.50;;;;;;5050847;28;20029;-82
2021/08/04 12:23:05;;;;;;;2.45;1.80;;;25.90;44.20;;;;;;5046797;28;20541;-82
2021/08/04 12:25:31;;;;;;;2.25;1.40;;;26.10;44.00;;;;;;5051077;28;20028;-81
2021/08/04 12:27:59;;;;;;;2.25;1.58;;;26.40;44.30;;;;;;5049893;28;20044;-82
2021/08/04 12:30:28;;;;;;;2.97;2.20;;;26.40;43.80;;;;;;5050086;28;20599;-82
2021/08/04 12:33:11;;;;;;;1.98;1.50;;;26.60;43.90;;;;;;5048474;28;20414;-84
2021/08/04 12:36:10;;;;;;;3.20;2.17;;;26.70;43.40;;;;;;5044258;28;20621;-84
2021/08/04 12:38:45;;;;;;;2.78;1.63;;;26.10;43.10;;;;;;5044695;28;20112;-84
2021/08/04 12:41:17;;;;;;;1.80;1.30;;;25.90;45.30;;;;;;5046123;28;20056;-80
2021/08/04 12:43:43;;;;;;;2.22;1.60;;;25.80;45.30;;;;;;5044212;28;20025;-82
2021/08/04 12:46:09;;;;;;;1.70;1.33;;;25.50;44.20;;;;;;5047096;28;20021;-81
2021/08/04 12:48:36;;;;;;;1.35;1.25;;;25.30;43.90;;;;;;5050099;28;20025;-81
2021/08/04 12:51:02;;;;;;;1.20;1.02;;;25.20;44.40;;;;;;5048720;28;20044;-81
2021/08/04 12:53:33;;;;;;;1.58;1.10;;;25.10;44.60;;;;;;5046434;28;20028;-81
2021/08/04 12:56:07;;;;;;;1.73;1.30;;;25.30;44.30;;;;;;5049087;28;20094;-82